Terminal Aerodrome Forecast
Issued by NWS

Home | Current Version | Previous Version | Text Only | Print | Product List | Glossary On
Versions: 1 2 3 4 5 6 7 8 9 10 11 12 13 14 15 16 17 18 19 20 21 22 23 24 25 26 27 28 29 30 31 32 33
147
FTUS41 KBOX 291733
TAFBAF
TAF
KBAF 291733Z 2918/3018 27013G22KT P6SM SCT050 BKN250
     FM300000 33010KT P6SM BKN100
     FM300500 34005KT P6SM SCT250
     FM301600 08004KT P6SM BKN070=

USA.gov is the U.S. government's official web portal to all federal, state and local government web resources and services.